Time;durP1;ratioP1;P1;durP2;ratioP2;P2;SDS_P1;SDS_P2;PMS_P1;PMS_P2;Temp;Humidity;BMP_temperature;BMP_pressure;BME280_temperature;BME280_humidity;BME280_pressure;Samples;Min_cycle;Max_cycle;Signal;HPM_P1;HPM_P2
2021/01/06 00:00:56;;;;;;;0.50;0.40;;;6.40;99.90;;;;;;5039789;28;20239;-79
2021/01/06 00:03:24;;;;;;;0.57;0.57;;;6.40;99.90;;;;;;5035392;28;20303;-79
2021/01/06 00:05:52;;;;;;;0.43;0.43;;;6.40;99.90;;;;;;5037942;28;20247;-79
2021/01/06 00:08:18;;;;;;;1.13;1.13;;;6.40;99.90;;;;;;5039367;28;20179;-79
2021/01/06 00:10:51;;;;;;;0.47;0.37;;;6.50;99.90;;;;;;5038176;28;20170;-78
2021/01/06 00:13:20;;;;;;;0.43;0.43;;;6.40;99.90;;;;;;5039908;28;20189;-79
2021/01/06 00:15:46;;;;;;;0.20;0.20;;;6.40;99.90;;;;;;5037283;28;20195;-79
2021/01/06 00:18:13;;;;;;;0.23;0.23;;;6.40;99.90;;;;;;5036764;28;20166;-77
2021/01/06 00:20:39;;;;;;;0.37;0.37;;;6.40;99.90;;;;;;5035150;28;20175;-78
2021/01/06 00:23:05;;;;;;;0.40;0.40;;;6.50;99.90;;;;;;5035240;28;20579;-77
2021/01/06 00:25:33;;;;;;;0.53;0.53;;;6.40;99.90;;;;;;5035230;28;20207;-78
2021/01/06 00:27:59;;;;;;;0.87;0.87;;;6.40;99.90;;;;;;5034826;28;20171;-78
2021/01/06 00:30:38;;;;;;;0.37;0.37;;;6.40;99.90;;;;;;5034571;28;20179;-77
2021/01/06 00:33:06;;;;;;;0.10;0.10;;;6.40;99.90;;;;;;5035379;28;20638;-78
2021/01/06 00:35:32;;;;;;;3.13;0.83;;;6.50;99.90;;;;;;5035205;28;20559;-78
2021/01/06 00:37:58;;;;;;;0.83;0.83;;;6.40;99.90;;;;;;5035169;28;20174;-78
2021/01/06 00:40:29;;;;;;;0.30;0.30;;;6.40;99.90;;;;;;5034027;28;20174;-78
2021/01/06 00:42:59;;;;;;;0.23;0.23;;;6.40;99.90;;;;;;5035610;28;20173;-78
2021/01/06 00:45:25;;;;;;;0.63;0.63;;;6.40;99.90;;;;;;5033560;28;20187;-79
2021/01/06 00:47:51;;;;;;;0.33;0.33;;;6.40;99.90;;;;;;5035011;28;20180;-77
2021/01/06 00:50:19;;;;;;;0.20;0.20;;;6.30;99.90;;;;;;5034952;28;20170;-77
2021/01/06 00:52:45;;;;;;;0.30;0.30;;;6.30;99.90;;;;;;5034929;28;20171;-77
2021/01/06 00:55:11;;;;;;;0.00;0.00;;;6.40;99.90;;;;;;5034941;28;20195;-77
2021/01/06 00:57:36;;;;;;;0.37;0.37;;;6.40;99.90;;;;;;5033735;28;20187;-77
2021/01/06 01:00:05;;;;;;;1.10;0.83;;;6.40;99.90;;;;;;5034618;28;20221;-78
2021/01/06 01:02:31;;;;;;;0.30;0.30;;;6.50;99.90;;;;;;5034872;28;20172;-78
2021/01/06 01:04:56;;;;;;;0.53;0.53;;;6.40;99.90;;;;;;5034567;28;20569;-77
2021/01/06 01:07:22;;;;;;;1.03;1.03;;;6.40;99.90;;;;;;5035245;28;20172;-77
2021/01/06 01:09:48;;;;;;;0.93;0.93;;;6.40;99.90;;;;;;5033257;28;20200;-77
2021/01/06 01:12:13;;;;;;;0.23;0.23;;;6.40;99.90;;;;;;5034363;28;20168;-77
2021/01/06 01:14:39;;;;;;;0.30;0.30;;;6.50;99.90;;;;;;5033259;28;20222;-77
2021/01/06 01:17:04;;;;;;;0.53;0.53;;;6.50;99.90;;;;;;5034893;28;20205;-78
2021/01/06 01:19:30;;;;;;;0.77;0.50;;;6.50;99.90;;;;;;5033300;28;20563;-78
2021/01/06 01:21:56;;;;;;;1.13;1.03;;;6.40;99.90;;;;;;5034664;28;20172;-78
2021/01/06 01:24:21;;;;;;;0.83;0.60;;;6.50;99.90;;;;;;5033196;28;20190;-78
2021/01/06 01:26:53;;;;;;;0.60;0.60;;;6.40;99.90;;;;;;5034497;28;20174;-77
2021/01/06 01:29:19;;;;;;;0.20;0.20;;;6.40;99.90;;;;;;5033077;28;20175;-77
2021/01/06 01:31:46;;;;;;;4.43;0.53;;;6.40;99.90;;;;;;5034791;28;20168;-77
2021/01/06 01:34:12;;;;;;;2.10;0.90;;;6.50;99.90;;;;;;5033222;28;20289;-78
2021/01/06 01:36:44;;;;;;;1.03;1.00;;;6.40;99.90;;;;;;5033250;28;20210;-77
2021/01/06 01:39:09;;;;;;;0.10;0.10;;;6.40;99.90;;;;;;5035223;28;20243;-78
2021/01/06 01:41:35;;;;;;;0.90;0.43;;;6.40;99.90;;;;;;5038108;28;20202;-78
2021/01/06 01:44:00;;;;;;;0.30;0.13;;;6.40;99.90;;;;;;5036857;28;20196;-77
2021/01/06 01:46:32;;;;;;;1.27;1.17;;;6.40;99.90;;;;;;5036716;28;20176;-77
2021/01/06 01:49:00;;;;;;;0.40;0.40;;;6.40;99.90;;;;;;5036532;28;20175;-78
2021/01/06 01:51:29;;;;;;;0.33;0.33;;;6.40;99.90;;;;;;5036867;28;20190;-78
2021/01/06 01:54:03;;;;;;;0.63;0.50;;;6.50;99.90;;;;;;5036542;28;20192;-78
2021/01/06 01:56:43;;;;;;;0.63;0.63;;;6.40;99.90;;;;;;5036389;28;20194;-77
2021/01/06 01:59:17;;;;;;;0.30;0.30;;;6.40;99.90;;;;;;5036444;28;20604;-78
2021/01/06 02:01:47;;;;;;;0.47;0.30;;;6.40;99.90;;;;;;5037786;28;20230;-77
2021/01/06 02:04:22;;;;;;;0.73;0.67;;;6.40;99.90;;;;;;5037576;28;20192;-78
2021/01/06 02:06:56;;;;;;;0.43;0.43;;;6.50;99.90;;;;;;5038287;28;20612;-78
2021/01/06 02:09:52;;;;;;;1.23;1.13;;;6.40;99.90;;;;;;5036670;28;20524;-78
2021/01/06 02:12:41;;;;;;;0.50;0.50;;;6.40;99.90;;;;;;5033725;28;20202;-78
2021/01/06 02:15:29;;;;;;;1.23;0.93;;;6.40;99.90;;;;;;5038024;28;20260;-78
2021/01/06 02:17:55;;;;;;;0.63;0.63;;;6.40;99.90;;;;;;5037123;28;20253;-78
2021/01/06 02:20:26;;;;;;;1.73;0.57;;;6.40;99.90;;;;;;5036670;28;20177;-78
2021/01/06 02:22:53;;;;;;;0.20;0.20;;;6.50;99.90;;;;;;5036551;28;20172;-78
2021/01/06 02:25:21;;;;;;;0.40;0.30;;;6.50;99.90;;;;;;5037435;28;20176;-78
2021/01/06 02:27:47;;;;;;;0.50;0.50;;;6.40;99.90;;;;;;5036318;28;20200;-78
2021/01/06 02:30:15;;;;;;;1.27;1.27;;;6.40;99.90;;;;;;5036211;28;20179;-78
2021/01/06 02:32:41;;;;;;;0.80;0.77;;;6.40;99.90;;;;;;5035811;28;20258;-78
2021/01/06 02:35:11;;;;;;;0.40;0.40;;;6.40;99.90;;;;;;5037388;28;20194;-77
2021/01/06 02:37:37;;;;;;;0.67;0.67;;;6.50;99.90;;;;;;5037416;28;20280;-77
2021/01/06 02:40:25;;;;;;;0.50;0.50;;;6.50;99.90;;;;;;5037518;28;20164;-78
2021/01/06 02:42:52;;;;;;;0.83;0.83;;;6.50;99.90;;;;;;5035032;28;20223;-78
2021/01/06 02:45:18;;;;;;;0.27;0.27;;;6.50;99.90;;;;;;5036904;28;20548;-78
2021/01/06 02:47:48;;;;;;;0.60;0.60;;;6.50;99.90;;;;;;5037196;28;20164;-78
2021/01/06 02:50:15;;;;;;;0.23;0.13;;;6.50;99.90;;;;;;5036755;28;20178;-78
2021/01/06 02:52:53;;;;;;;1.07;1.00;;;6.40;99.90;;;;;;5036538;28;20223;-78
2021/01/06 02:55:20;;;;;;;0.57;0.57;;;6.40;99.90;;;;;;5036882;28;20268;-78
2021/01/06 02:57:46;;;;;;;0.67;0.57;;;6.40;99.90;;;;;;5036610;28;20174;-77
2021/01/06 03:00:23;;;;;;;0.20;0.20;;;6.40;99.90;;;;;;5035194;28;20180;-78
2021/01/06 03:02:49;;;;;;;0.67;0.67;;;6.30;99.90;;;;;;5036849;28;20152;-78
2021/01/06 03:05:28;;;;;;;0.70;0.60;;;6.30;99.90;;;;;;5035054;28;20307;-78
2021/01/06 03:07:54;;;;;;;0.97;0.90;;;6.40;99.90;;;;;;5035610;28;20188;-77
2021/01/06 03:10:21;;;;;;;1.23;1.13;;;6.40;99.90;;;;;;5036387;28;20161;-77
2021/01/06 03:12:48;;;;;;;1.10;1.00;;;6.40;99.90;;;;;;5036366;28;20171;-78
2021/01/06 03:15:16;;;;;;;1.50;0.83;;;6.40;99.90;;;;;;5036457;28;20564;-78
2021/01/06 03:17:42;;;;;;;1.40;1.17;;;6.50;99.90;;;;;;5036265;28;20242;-77
2021/01/06 03:20:14;;;;;;;0.50;0.50;;;6.50;99.90;;;;;;5034723;28;20213;-77
2021/01/06 03:22:43;;;;;;;0.33;0.33;;;6.50;99.90;;;;;;5035221;28;20210;-78
2021/01/06 03:25:12;;;;;;;2.33;0.77;;;6.40;99.90;;;;;;5035950;28;20186;-78
2021/01/06 03:27:40;;;;;;;1.37;0.67;;;6.40;99.90;;;;;;5034767;28;20182;-78
2021/01/06 03:30:10;;;;;;;0.90;0.90;;;6.40;99.90;;;;;;5035227;28;20187;-77
2021/01/06 03:32:49;;;;;;;1.60;0.53;;;6.40;99.90;;;;;;5036143;28;20224;-78
2021/01/06 03:35:27;;;;;;;1.77;1.13;;;6.30;99.90;;;;;;5034826;28;20323;-78
2021/01/06 03:38:11;;;;;;;0.80;0.80;;;6.40;99.90;;;;;;5034764;28;20174;-78
2021/01/06 03:40:39;;;;;;;0.40;0.40;;;6.40;99.90;;;;;;5036069;28;20229;-77
2021/01/06 03:43:07;;;;;;;0.30;0.30;;;6.30;99.90;;;;;;5034372;28;20196;-78
2021/01/06 03:45:37;;;;;;;0.73;0.70;;;6.30;99.90;;;;;;5034682;28;20702;-78
2021/01/06 03:48:10;;;;;;;1.07;0.90;;;6.30;99.90;;;;;;5036016;28;20220;-78
2021/01/06 03:50:40;;;;;;;0.97;0.97;;;6.30;99.90;;;;;;5034953;28;20201;-78
2021/01/06 03:53:18;;;;;;;1.13;1.13;;;6.30;99.90;;;;;;5035690;28;20162;-77
2021/01/06 03:55:49;;;;;;;1.53;1.43;;;6.30;99.90;;;;;;5035899;28;20182;-78
2021/01/06 03:58:24;;;;;;;1.00;1.00;;;6.20;99.90;;;;;;5035018;28;20168;-78
2021/01/06 04:00:54;;;;;;;0.73;0.73;;;6.20;99.90;;;;;;5034690;28;20174;-78
2021/01/06 04:03:28;;;;;;;0.90;0.90;;;6.30;99.90;;;;;;5033899;28;20162;-79
2021/01/06 04:05:55;;;;;;;0.77;0.77;;;6.30;99.90;;;;;;5035885;28;20175;-78
2021/01/06 04:08:32;;;;;;;1.20;1.20;;;6.30;99.90;;;;;;5035596;28;20673;-77
2021/01/06 04:11:01;;;;;;;1.10;1.03;;;6.30;99.90;;;;;;5035563;28;20159;-77
2021/01/06 04:13:26;;;;;;;1.80;1.20;;;6.30;99.90;;;;;;5035679;28;20207;-78
2021/01/06 04:15:52;;;;;;;0.70;0.47;;;6.30;99.90;;;;;;5035634;28;20199;-77
2021/01/06 04:18:18;;;;;;;0.33;0.30;;;6.30;99.90;;;;;;5033991;28;20199;-78
2021/01/06 04:20:43;;;;;;;0.77;0.77;;;6.30;99.90;;;;;;5034348;28;20185;-78
2021/01/06 04:23:14;;;;;;;0.50;0.50;;;6.30;99.90;;;;;;5035789;28;20171;-78
2021/01/06 04:25:43;;;;;;;1.27;1.17;;;6.30;99.90;;;;;;5035558;28;20206;-78
2021/01/06 04:28:17;;;;;;;0.70;0.70;;;6.30;99.90;;;;;;5035241;28;20183;-78
2021/01/06 04:30:48;;;;;;;0.13;0.10;;;6.30;99.90;;;;;;5035187;28;20192;-77
2021/01/06 04:33:23;;;;;;;2.00;0.90;;;6.20;99.90;;;;;;5034062;28;20225;-78
2021/01/06 04:35:50;;;;;;;0.70;0.60;;;6.20;99.90;;;;;;5034639;28;20191;-78
2021/01/06 04:38:18;;;;;;;0.37;0.37;;;6.10;99.90;;;;;;5035734;28;20173;-78
2021/01/06 04:40:46;;;;;;;0.40;0.40;;;6.20;99.90;;;;;;5034205;28;20169;-77
2021/01/06 04:43:20;;;;;;;0.47;0.47;;;6.20;99.90;;;;;;5033817;28;20166;-77
2021/01/06 04:46:10;;;;;;;0.87;0.87;;;6.20;99.90;;;;;;5034365;28;20173;-77
2021/01/06 04:48:58;;;;;;;0.83;0.70;;;6.10;99.90;;;;;;5035588;28;20166;-78
2021/01/06 04:51:46;;;;;;;0.90;0.90;;;6.20;99.90;;;;;;5035240;28;20157;-77
2021/01/06 04:54:29;;;;;;;0.83;0.83;;;6.20;99.90;;;;;;5035262;28;20610;-78
2021/01/06 04:57:10;;;;;;;0.50;0.50;;;6.20;99.90;;;;;;5033821;28;20200;-78
2021/01/06 05:00:05;;;;;;;0.47;0.47;;;6.20;99.90;;;;;;5035122;28;20157;-77
2021/01/06 05:03:12;;;;;;;0.63;0.57;;;6.20;99.90;;;;;;5035214;28;20251;-78
2021/01/06 05:06:04;;;;;;;1.17;0.80;;;6.20;99.90;;;;;;5035350;28;20245;-78
2021/01/06 05:08:42;;;;;;;0.73;0.73;;;6.20;99.90;;;;;;5034878;28;20163;-78
2021/01/06 05:11:33;;;;;;;0.60;0.50;;;6.10;99.90;;;;;;5033643;28;20257;-78
2021/01/06 05:14:03;;;;;;;1.27;1.17;;;6.10;99.90;;;;;;5055664;22;20218;-83
2021/01/06 05:16:42;;;;;;;0.63;0.63;;;6.10;99.90;;;;;;5058622;28;20200;-83
2021/01/06 05:19:20;;;;;;;0.77;0.77;;;6.20;99.90;;;;;;5057273;28;20165;-83
2021/01/06 05:21:46;;;;;;;1.27;1.17;;;6.10;99.90;;;;;;5059031;28;20190;-83
2021/01/06 05:24:20;;;;;;;2.47;2.03;;;6.10;99.90;;;;;;5057709;28;20191;-84
2021/01/06 05:26:52;;;;;;;0.70;0.70;;;6.20;99.90;;;;;;5057304;28;20656;-84
2021/01/06 05:29:24;;;;;;;0.50;0.50;;;6.10;99.90;;;;;;5057667;28;20200;-84
2021/01/06 05:31:50;;;;;;;0.23;0.23;;;6.20;99.90;;;;;;5057990;28;20574;-84
2021/01/06 05:34:15;;;;;;;5.30;2.10;;;6.20;99.90;;;;;;5057570;28;20251;-84
2021/01/06 05:36:42;;;;;;;2.27;0.93;;;6.20;99.90;;;;;;5059341;28;20191;-84
2021/01/06 05:39:28;;;;;;;0.37;0.37;;;6.20;99.90;;;;;;5057805;28;20178;-83
2021/01/06 05:42:25;;;;;;;1.43;1.07;;;6.10;99.90;;;;;;5057837;28;20246;-83
2021/01/06 05:44:55;;;;;;;1.17;0.47;;;6.20;99.90;;;;;;5057318;28;20190;-83
2021/01/06 05:47:36;;;;;;;1.00;1.00;;;6.10;99.90;;;;;;5057915;28;20173;-83
2021/01/06 05:50:38;;;;;;;0.67;0.67;;;6.20;99.90;;;;;;5057398;28;20170;-83
2021/01/06 05:53:12;;;;;;;0.87;0.87;;;6.10;99.90;;;;;;5057592;28;20656;-83
2021/01/06 05:55:40;;;;;;;0.53;0.53;;;6.10;99.90;;;;;;5059459;28;20159;-84
2021/01/06 05:58:18;;;;;;;0.17;0.17;;;6.10;99.90;;;;;;5058181;28;20226;-84
2021/01/06 06:01:07;;;;;;;0.97;0.90;;;6.10;99.90;;;;;;5059674;28;20170;-84
2021/01/06 06:03:36;;;;;;;0.80;0.80;;;6.10;99.90;;;;;;5058199;28;20195;-84
2021/01/06 06:06:45;;;;;;;5.10;1.50;;;6.10;99.90;;;;;;5057911;28;20178;-84
2021/01/06 06:09:26;;;;;;;1.00;0.87;;;6.00;99.90;;;;;;5027028;28;20193;-85
2021/01/06 06:12:21;;;;;;;0.57;0.57;;;6.00;99.90;;;;;;5058331;28;20175;-85
2021/01/06 06:14:50;;;;;;;2.13;1.53;;;6.10;99.90;;;;;;5023689;28;20226;-85
2021/01/06 06:17:16;;;;;;;0.60;0.60;;;6.10;99.90;;;;;;5058320;28;20205;-85
2021/01/06 06:19:56;;;;;;;1.07;1.07;;;6.20;99.90;;;;;;5058558;28;20182;-85
2021/01/06 06:22:44;;;;;;;0.70;0.70;;;6.10;99.90;;;;;;5058368;28;20168;-85
2021/01/06 06:25:27;;;;;;;1.87;1.77;;;6.00;99.90;;;;;;5051248;28;20201;-85
2021/01/06 06:27:55;;;;;;;1.43;1.23;;;6.00;99.90;;;;;;5058789;28;20251;-85
2021/01/06 06:30:39;;;;;;;1.33;1.23;;;5.90;99.90;;;;;;5059548;28;20185;-85
2021/01/06 06:33:34;;;;;;;0.70;0.57;;;5.90;99.90;;;;;;5059062;28;20612;-85
2021/01/06 06:36:09;;;;;;;0.10;0.10;;;6.00;99.90;;;;;;5055185;28;20208;-85
2021/01/06 06:38:38;;;;;;;1.50;1.40;;;6.00;99.90;;;;;;5059638;28;20166;-85
2021/01/06 06:41:08;;;;;;;0.93;0.60;;;5.90;99.90;;;;;;5060207;28;20226;-85
2021/01/06 06:43:39;;;;;;;1.60;0.50;;;5.90;99.90;;;;;;5057258;28;20187;-83
2021/01/06 06:46:31;;;;;;;1.20;0.63;;;5.90;99.90;;;;;;5055802;28;20635;-85
2021/01/06 06:49:22;;;;;;;1.03;1.03;;;6.00;99.90;;;;;;5056643;28;20159;-83
2021/01/06 06:52:07;;;;;;;0.67;0.67;;;5.90;99.90;;;;;;5055397;28;20213;-83
2021/01/06 06:55:11;;;;;;;0.57;0.40;;;5.90;99.90;;;;;;5055379;28;20567;-85
2021/01/06 06:57:46;;;;;;;1.10;0.97;;;5.90;99.90;;;;;;5055060;28;20190;-84
2021/01/06 07:00:23;;;;;;;1.43;0.67;;;5.80;99.90;;;;;;5055335;28;20215;-83
2021/01/06 07:03:01;;;;;;;1.27;0.83;;;5.80;99.90;;;;;;5055599;28;20512;-83
2021/01/06 07:05:40;;;;;;;0.20;0.20;;;5.80;99.90;;;;;;5056830;28;20155;-83
2021/01/06 07:08:11;;;;;;;1.07;1.03;;;5.80;99.90;;;;;;5056823;28;20165;-83
2021/01/06 07:10:45;;;;;;;2.23;2.13;;;5.80;99.90;;;;;;5055418;28;20163;-83
2021/01/06 07:13:18;;;;;;;1.27;0.90;;;5.90;99.90;;;;;;5055442;28;20165;-83
2021/01/06 07:15:57;;;;;;;0.40;0.40;;;5.80;99.90;;;;;;5055749;28;20167;-85
2021/01/06 07:18:38;;;;;;;1.40;1.30;;;5.70;99.90;;;;;;5055610;28;20226;-84
2021/01/06 07:21:10;;;;;;;0.43;0.43;;;5.70;99.90;;;;;;5057832;28;20644;-83
2021/01/06 07:23:43;;;;;;;0.50;0.50;;;5.80;99.90;;;;;;5057454;28;20187;-83
2021/01/06 07:26:15;;;;;;;1.60;1.33;;;5.80;99.90;;;;;;5056699;28;20619;-83
2021/01/06 07:28:41;;;;;;;0.40;0.40;;;5.80;99.90;;;;;;5055433;28;20167;-85
2021/01/06 07:31:20;;;;;;;1.00;0.90;;;5.90;99.90;;;;;;5055671;28;20646;-84
2021/01/06 07:34:02;;;;;;;1.43;1.33;;;5.80;99.90;;;;;;5054500;28;20200;-84
2021/01/06 07:36:43;;;;;;;1.00;1.00;;;5.80;99.90;;;;;;5053550;28;20226;-84
2021/01/06 07:39:19;;;;;;;1.67;1.37;;;5.90;99.90;;;;;;5054249;28;20171;-84
2021/01/06 07:41:45;;;;;;;0.80;0.80;;;6.00;99.90;;;;;;5054945;28;20170;-84
2021/01/06 07:44:27;;;;;;;0.57;0.57;;;6.00;99.90;;;;;;5055308;28;20193;-83
2021/01/06 07:47:01;;;;;;;0.30;0.30;;;6.00;99.90;;;;;;5055733;28;20535;-83
2021/01/06 07:49:37;;;;;;;0.80;0.43;;;6.00;99.90;;;;;;5056408;28;20290;-83
2021/01/06 07:52:34;;;;;;;1.48;1.38;;;5.90;99.90;;;;;;5055513;28;20416;-83
2021/01/06 07:55:18;;;;;;;0.40;0.37;;;6.00;99.90;;;;;;5056552;28;20233;-84
2021/01/06 07:57:49;;;;;;;1.13;1.03;;;5.90;99.90;;;;;;5057921;28;20260;-85
2021/01/06 08:00:24;;;;;;;0.50;0.50;;;5.90;99.90;;;;;;5056844;28;20187;-85
2021/01/06 08:02:57;;;;;;;0.60;0.60;;;5.90;99.90;;;;;;5055507;28;20170;-82
2021/01/06 08:05:32;;;;;;;1.80;0.77;;;5.90;99.90;;;;;;5057306;28;20236;-84
2021/01/06 08:08:11;;;;;;;0.27;0.27;;;5.90;99.90;;;;;;5055847;28;20641;-83
2021/01/06 08:10:39;;;;;;;0.30;0.30;;;5.80;99.90;;;;;;5056522;28;20168;-83
2021/01/06 08:13:13;;;;;;;0.53;0.53;;;5.90;99.90;;;;;;5058098;28;20169;-83
2021/01/06 08:15:39;;;;;;;1.47;0.50;;;5.90;99.90;;;;;;5057178;28;20167;-83
2021/01/06 08:18:26;;;;;;;1.70;1.43;;;5.90;99.90;;;;;;5057193;28;20186;-85
2021/01/06 08:21:15;;;;;;;0.83;0.83;;;5.90;99.90;;;;;;5056609;28;20194;-84
2021/01/06 08:24:04;;;;;;;0.83;0.83;;;5.90;99.90;;;;;;5054097;28;20198;-82
2021/01/06 08:26:31;;;;;;;0.57;0.57;;;5.90;99.90;;;;;;5055469;28;20154;-82
2021/01/06 08:29:14;;;;;;;0.63;0.63;;;5.90;99.90;;;;;;5054657;28;20223;-82
2021/01/06 08:31:40;;;;;;;0.97;0.97;;;5.90;99.90;;;;;;5056341;28;20170;-82
2021/01/06 08:34:06;;;;;;;1.10;1.10;;;6.00;99.90;;;;;;5056220;28;20205;-82
2021/01/06 08:36:37;;;;;;;0.80;0.77;;;6.00;99.90;;;;;;5055531;28;20203;-83
2021/01/06 08:39:14;;;;;;;1.17;1.07;;;6.00;99.90;;;;;;5053118;28;20198;-86
2021/01/06 08:41:41;;;;;;;0.30;0.30;;;6.00;99.90;;;;;;5053488;28;20172;-83
2021/01/06 08:44:25;;;;;;;1.70;1.20;;;6.00;99.90;;;;;;5054131;28;20196;-82
2021/01/06 08:46:58;;;;;;;0.67;0.60;;;6.10;99.90;;;;;;5052912;28;20198;-82
2021/01/06 08:49:28;;;;;;;1.50;1.17;;;6.00;99.90;;;;;;5056634;28;20160;-82
2021/01/06 08:51:56;;;;;;;0.87;0.87;;;6.00;99.90;;;;;;5057706;28;20527;-82
2021/01/06 08:54:32;;;;;;;1.73;1.33;;;6.00;99.90;;;;;;5059081;28;20190;-82
2021/01/06 08:57:09;;;;;;;2.00;1.03;;;6.00;99.90;;;;;;5058092;28;20193;-83
2021/01/06 08:59:37;;;;;;;0.47;0.40;;;6.00;99.90;;;;;;5060597;28;20229;-82
2021/01/06 09:02:14;;;;;;;0.57;0.50;;;6.10;99.90;;;;;;5061225;28;20225;-83
2021/01/06 09:04:43;;;;;;;0.90;0.90;;;6.10;99.90;;;;;;5059440;28;20221;-83
2021/01/06 09:07:22;;;;;;;1.07;0.97;;;6.10;99.90;;;;;;5059432;28;20175;-84
2021/01/06 09:10:05;;;;;;;3.07;1.33;;;6.20;99.90;;;;;;5059755;28;20170;-83
2021/01/06 09:12:56;;;;;;;0.93;0.83;;;6.30;99.90;;;;;;5060470;28;20173;-82
2021/01/06 09:15:30;;;;;;;0.63;0.60;;;6.30;99.90;;;;;;5059505;28;20208;-83
2021/01/06 09:18:04;;;;;;;2.23;1.23;;;6.20;99.90;;;;;;5059349;28;20171;-83
2021/01/06 09:20:44;;;;;;;1.80;1.30;;;6.20;99.90;;;;;;5060004;28;20162;-84
2021/01/06 09:23:17;;;;;;;1.70;1.60;;;6.20;99.90;;;;;;5059163;28;20160;-84
2021/01/06 09:25:43;;;;;;;1.27;0.67;;;6.20;99.90;;;;;;5059931;28;20632;-81
2021/01/06 09:28:13;;;;;;;1.47;1.03;;;6.10;99.90;;;;;;5059981;28;20167;-84
2021/01/06 09:30:39;;;;;;;0.73;0.67;;;6.10;99.90;;;;;;5059327;28;20574;-84
2021/01/06 09:33:19;;;;;;;1.00;0.90;;;6.10;99.90;;;;;;5059823;28;20202;-84
2021/01/06 09:35:44;;;;;;;1.30;0.90;;;6.20;99.90;;;;;;5061380;28;20196;-83
2021/01/06 09:38:36;;;;;;;1.23;0.57;;;6.20;99.90;;;;;;5061483;28;20164;-82
2021/01/06 09:41:11;;;;;;;1.47;1.27;;;6.30;99.90;;;;;;5061382;28;20162;-83
2021/01/06 09:43:50;;;;;;;1.27;1.17;;;6.30;99.90;;;;;;5061453;28;20178;-84
2021/01/06 09:46:44;;;;;;;1.67;1.53;;;6.30;99.90;;;;;;5060491;28;20199;-84
2021/01/06 09:49:13;;;;;;;1.80;1.70;;;6.30;99.90;;;;;;5060818;28;20284;-83
2021/01/06 09:51:43;;;;;;;1.67;1.37;;;6.30;99.90;;;;;;5060426;28;20174;-84
2021/01/06 09:54:11;;;;;;;1.97;1.03;;;6.30;99.90;;;;;;5060137;28;20251;-84
2021/01/06 09:56:37;;;;;;;1.60;1.50;;;6.30;99.90;;;;;;5060277;28;20199;-84
2021/01/06 09:59:12;;;;;;;2.40;0.50;;;6.40;99.90;;;;;;5061522;28;20177;-84
2021/01/06 10:01:50;;;;;;;1.70;1.60;;;6.30;99.90;;;;;;5059172;28;20648;-83
2021/01/06 10:04:22;;;;;;;1.60;0.90;;;6.30;99.90;;;;;;5056007;28;20190;-83
2021/01/06 10:07:17;;;;;;;2.43;2.07;;;6.30;99.90;;;;;;5057140;28;20159;-84
2021/01/06 10:09:47;;;;;;;0.97;0.90;;;6.30;99.90;;;;;;5057784;28;20535;-83
2021/01/06 10:12:34;;;;;;;1.80;1.17;;;6.30;99.90;;;;;;5057684;28;20178;-83
2021/01/06 10:15:23;;;;;;;1.63;0.43;;;6.30;99.90;;;;;;5056116;28;20206;-83
2021/01/06 10:18:14;;;;;;;0.63;0.63;;;6.20;99.90;;;;;;5056542;28;20191;-83
2021/01/06 10:20:58;;;;;;;1.80;0.97;;;6.30;99.90;;;;;;5056769;28;20185;-83
2021/01/06 10:23:48;;;;;;;2.17;1.77;;;6.30;99.90;;;;;;5055980;28;20599;-83
2021/01/06 10:26:20;;;;;;;1.73;1.63;;;6.30;99.90;;;;;;5056475;28;20184;-82
2021/01/06 10:28:48;;;;;;;2.40;1.77;;;6.40;99.90;;;;;;5057934;28;20290;-84
2021/01/06 10:31:18;;;;;;;1.70;1.60;;;6.30;99.90;;;;;;5056441;28;20209;-83
2021/01/06 10:34:05;;;;;;;2.97;1.13;;;6.30;99.90;;;;;;5058562;28;20197;-84
2021/01/06 10:37:00;;;;;;;3.00;2.80;;;6.10;99.90;;;;;;5056156;28;20193;-84
2021/01/06 10:39:42;;;;;;;1.60;1.50;;;6.10;99.90;;;;;;5056795;28;20181;-84
2021/01/06 10:42:32;;;;;;;0.70;0.60;;;6.20;99.90;;;;;;5057112;28;20162;-83
2021/01/06 10:45:08;;;;;;;1.37;1.03;;;6.10;99.90;;;;;;5057223;28;20560;-84
2021/01/06 10:47:34;;;;;;;1.30;1.00;;;6.10;99.90;;;;;;5056215;28;20710;-84
2021/01/06 10:49:59;;;;;;;1.13;1.13;;;6.00;99.90;;;;;;5055188;28;20172;-84
2021/01/06 10:52:26;;;;;;;2.63;1.87;;;6.10;99.90;;;;;;5055106;28;20167;-84
2021/01/06 10:55:07;;;;;;;2.50;1.67;;;6.00;99.90;;;;;;5055419;28;20194;-84
2021/01/06 10:57:38;;;;;;;1.80;1.47;;;6.10;99.90;;;;;;5057771;28;20724;-85
2021/01/06 11:00:23;;;;;;;0.80;0.80;;;6.10;99.90;;;;;;5057402;28;20186;-84
2021/01/06 11:02:51;;;;;;;1.03;0.87;;;6.20;99.90;;;;;;5057727;28;20176;-84
2021/01/06 11:05:28;;;;;;;1.47;1.37;;;6.10;99.90;;;;;;5056393;28;20200;-83
2021/01/06 11:07:57;;;;;;;0.70;0.50;;;6.20;99.90;;;;;;5055911;28;20162;-83
2021/01/06 11:10:48;;;;;;;1.00;0.30;;;6.00;99.90;;;;;;5057830;28;20172;-83
2021/01/06 11:13:26;;;;;;;3.30;3.07;;;6.10;99.90;;;;;;5056153;28;20251;-84
2021/01/06 11:15:56;;;;;;;2.47;2.07;;;6.20;99.90;;;;;;5056305;28;20190;-84
2021/01/06 11:18:21;;;;;;;1.53;1.13;;;6.10;99.90;;;;;;5057549;28;20195;-84
2021/01/06 11:21:05;;;;;;;1.10;1.10;;;6.10;99.90;;;;;;5056512;28;20171;-83
2021/01/06 11:23:33;;;;;;;0.43;0.43;;;6.10;99.90;;;;;;5056670;28;20192;-85
2021/01/06 11:26:30;;;;;;;1.17;1.13;;;6.00;99.90;;;;;;5058153;28;20168;-84
2021/01/06 11:29:13;;;;;;;1.60;1.50;;;6.10;99.90;;;;;;5056355;28;20185;-83
2021/01/06 11:31:50;;;;;;;1.80;1.70;;;6.10;99.90;;;;;;5056389;28;20166;-82
2021/01/06 11:34:15;;;;;;;2.03;1.13;;;6.00;99.90;;;;;;5054812;28;20247;-83
2021/01/06 11:36:53;;;;;;;1.10;1.10;;;6.10;99.90;;;;;;5055891;28;20555;-83
2021/01/06 11:39:28;;;;;;;2.50;1.83;;;6.10;99.90;;;;;;5056152;28;20174;-83
2021/01/06 11:42:03;;;;;;;0.33;0.33;;;6.20;99.90;;;;;;5055711;28;20164;-81
2021/01/06 11:44:40;;;;;;;0.47;0.47;;;6.20;99.90;;;;;;5053333;28;20192;-81
2021/01/06 11:47:30;;;;;;;0.40;0.40;;;6.10;99.90;;;;;;5053367;28;20181;-81
2021/01/06 11:50:23;;;;;;;0.77;0.60;;;6.10;99.90;;;;;;5053718;28;20168;-84
2021/01/06 11:52:50;;;;;;;1.00;0.93;;;6.20;99.90;;;;;;5053720;28;20263;-82
2021/01/06 11:55:16;;;;;;;1.33;1.23;;;6.20;99.90;;;;;;5053828;28;20203;-81
2021/01/06 11:57:50;;;;;;;1.10;1.07;;;6.20;99.90;;;;;;5053750;28;20197;-82
2021/01/06 12:00:43;;;;;;;0.50;0.50;;;6.20;99.90;;;;;;5054393;28;20177;-86
2021/01/06 12:03:12;;;;;;;0.50;0.50;;;6.20;99.90;;;;;;5054126;28;20171;-80
2021/01/06 12:06:08;;;;;;;0.83;0.67;;;6.20;99.90;;;;;;5055113;28;20177;-84
2021/01/06 12:09:12;;;;;;;0.93;0.53;;;6.20;99.90;;;;;;5053953;28;20612;-85
2021/01/06 12:11:41;;;;;;;0.40;0.40;;;6.20;99.90;;;;;;5053946;28;20310;-85
2021/01/06 12:14:27;;;;;;;1.47;1.37;;;6.30;99.90;;;;;;5055085;28;20213;-83
2021/01/06 12:17:08;;;;;;;0.63;0.63;;;6.30;99.90;;;;;;5053845;28;20199;-85
2021/01/06 12:19:55;;;;;;;0.87;0.73;;;6.30;99.90;;;;;;5054466;28;20178;-82
2021/01/06 12:22:22;;;;;;;1.17;1.17;;;6.30;99.90;;;;;;5055178;28;20167;-84
2021/01/06 12:24:52;;;;;;;1.27;1.27;;;6.30;99.90;;;;;;5052767;28;20192;-84
2021/01/06 12:27:18;;;;;;;0.57;0.27;;;6.40;99.90;;;;;;5054123;28;20172;-83
2021/01/06 12:29:47;;;;;;;1.30;1.20;;;6.40;99.90;;;;;;5054294;28;20172;-86
2021/01/06 12:32:41;;;;;;;1.80;1.33;;;6.40;99.90;;;;;;5053459;28;20550;-85
2021/01/06 12:35:26;;;;;;;1.87;1.37;;;6.50;99.90;;;;;;5054222;28;20206;-82
2021/01/06 12:38:20;;;;;;;0.70;0.43;;;6.50;99.90;;;;;;5055924;28;20187;-82
2021/01/06 12:41:09;;;;;;;1.63;1.27;;;6.60;99.90;;;;;;5055687;28;20637;-82
2021/01/06 12:43:42;;;;;;;1.20;1.20;;;6.50;99.90;;;;;;5052904;28;20202;-82
2021/01/06 12:46:18;;;;;;;1.33;1.23;;;6.60;99.90;;;;;;5056849;28;20290;-83
2021/01/06 12:49:25;;;;;;;0.70;0.70;;;6.60;99.90;;;;;;5055845;28;20169;-83
2021/01/06 12:51:53;;;;;;;1.30;1.17;;;6.70;99.90;;;;;;5052875;28;20213;-84
2021/01/06 12:54:21;;;;;;;1.40;1.30;;;6.60;99.90;;;;;;5055631;28;20700;-82
2021/01/06 12:57:00;;;;;;;0.80;0.73;;;6.60;99.90;;;;;;5054668;28;20200;-83
2021/01/06 12:59:27;;;;;;;3.23;0.97;;;6.60;99.90;;;;;;5055804;28;20196;-84
2021/01/06 13:01:58;;;;;;;1.03;1.03;;;6.60;99.90;;;;;;5056315;28;20262;-84
2021/01/06 13:04:46;;;;;;;0.87;0.87;;;6.70;99.90;;;;;;5053464;28;20234;-84
2021/01/06 13:07:11;;;;;;;0.70;0.70;;;6.70;99.90;;;;;;5053234;28;20178;-84
2021/01/06 13:09:38;;;;;;;1.37;1.27;;;6.70;99.90;;;;;;5052598;28;20178;-84
2021/01/06 13:12:25;;;;;;;1.80;1.70;;;6.70;99.90;;;;;;5053492;28;20174;-84
2021/01/06 13:15:21;;;;;;;0.97;0.97;;;6.80;99.90;;;;;;5052098;28;20213;-84
2021/01/06 13:17:59;;;;;;;1.10;1.10;;;6.70;99.90;;;;;;5051968;28;20285;-84
2021/01/06 13:21:02;;;;;;;0.93;0.90;;;6.80;99.90;;;;;;5051913;28;20166;-83
2021/01/06 13:23:37;;;;;;;0.30;0.30;;;6.70;99.90;;;;;;5041449;28;20198;-84
2021/01/06 13:26:18;;;;;;;1.33;1.33;;;6.70;99.90;;;;;;5052197;28;20167;-84
2021/01/06 13:29:08;;;;;;;1.37;1.33;;;6.70;99.90;;;;;;5052312;28;20175;-84
2021/01/06 13:31:42;;;;;;;0.73;0.73;;;6.70;99.90;;;;;;5053281;28;20208;-84
2021/01/06 13:34:52;;;;;;;0.57;0.53;;;6.60;99.90;;;;;;5052113;28;20677;-83
2021/01/06 13:37:20;;;;;;;0.60;0.60;;;6.60;99.90;;;;;;5049986;28;20297;-84
2021/01/06 13:40:24;;;;;;;1.73;1.33;;;6.60;99.90;;;;;;5057232;28;20170;-84